This is the latest recevied weather packets stored in our database for station/object KE8GJZ-1. If no packets are shown the sender has not sent any weather packets the latest 10 day(s).
| Time | Temp. | Humidity | Pressure | Rain* | Wind** | Luminosity | Snow |
|---|---|---|---|---|---|---|---|
| 1777868122 | 10.56° C | 68% | 1006.1 hPa | 0 mm | - | 0 W/m² | - |
| 1777867818 | 10.56° C | 68% | 1006.4 hPa | 0 mm | - | 0 W/m² | - |
| 1777867516 | 10.56° C | 68% | 1006.6 hPa | 0 mm | - | 0 W/m² | - |
| 1777866909 | 10.56° C | 68% | 1006.6 hPa | 0 mm | - | 0 W/m² | - |
| 1777865698 | 10.56° C | 67% | 1007.2 hPa | 0 mm | - | 0 W/m² | - |
| 1777865395 | 10.56° C | 67% | 1006.7 hPa | 0 mm | - | 0 W/m² | - |
| 1777846603 | 15.56° C | 46% | 1007.7 hPa | 0 mm | - | 68 W/m² | - |
| 1777845996 | 15.56° C | 45% | 1007.8 hPa | 0 mm | - | 85 W/m² | - |
| 1777845693 | 15.56° C | 45% | 1007.9 hPa | 0 mm | - | 87 W/m² | - |
| 1777845390 | 15.56° C | 45% | 1007.9 hPa | 0 mm | - | 74 W/m² | - |
| 1777844481 | 16.11° C | 43% | 1007.8 hPa | 0 mm | - | 86 W/m² | - |
| 1777844180 | 16.11° C | 43% | 1007.5 hPa | 0 mm | - | 138 W/m² | - |
| 1777843574 | 16.11° C | 42% | 1007.5 hPa | 0 mm | - | 139 W/m² | - |
| 1777843271 | 16.11° C | 42% | 1007.6 hPa | 0 mm | - | 96 W/m² | - |
| 1777842969 | 16.11° C | 42% | 1007.8 hPa | 0 mm | - | 157 W/m² | - |
| 1777842664 | 16.11° C | 41% | 1007.6 hPa | 0 mm | - | 111 W/m² | - |
| 1777842361 | 16.67° C | 41% | 1007.8 hPa | 0 mm | - | 177 W/m² | - |
| 1777842056 | 17.22° C | 39% | 1007.6 hPa | 0 mm | - | 109 W/m² | - |
| 1777841753 | 17.22° C | 39% | 1007.6 hPa | 0 mm | - | 514 W/m² | - |
| 1777841147 | 17.22° C | 38% | 1007.8 hPa | 0 mm | - | 144 W/m² | - |
| 1777840541 | 16.67° C | 40% | 1007.7 hPa | 0 mm | - | 182 W/m² | - |
| 1777840238 | 16.67° C | 40% | 1007.6 hPa | 0 mm | - | 173 W/m² | - |
| 1777839936 | 16.67° C | 39% | 1008 hPa | 0 mm | - | 83 W/m² | - |
| 1777839634 | 16.67° C | 40% | 1007.9 hPa | 0 mm | - | 183 W/m² | - |
| 1777839332 | 17.22° C | 39% | 1008.1 hPa | 0 mm | - | 104 W/m² | - |
* Rain latest hour (hover to see other rain measurements)
** Current wind speed in m/s (hover to see current wind gust speed)